Time;durP1;ratioP1;P1;durP2;ratioP2;P2;SDS_P1;SDS_P2;PMS_P1;PMS_P2;Temp;Humidity;BMP_temperature;BMP_pressure;BME280_temperature;BME280_humidity;BME280_pressure;Samples;Min_cycle;Max_cycle;Signal;HPM_P1;HPM_P2
2022/06/24 00:00:03;;;;;;;4.13;3.30;;;22.30;72.90;;;;;;5046571;28;20044;-65
2022/06/24 00:02:29;;;;;;;6.20;3.28;;;22.30;73.80;;;;;;5061696;28;20501;-65
2022/06/24 00:04:56;;;;;;;5.90;3.45;;;22.40;72.30;;;;;;5061736;28;20041;-65
2022/06/24 00:07:21;;;;;;;4.45;3.10;;;22.50;71.80;;;;;;5053068;28;20048;-65
2022/06/24 00:09:48;;;;;;;5.50;3.13;;;22.60;70.80;;;;;;5048571;28;20079;-65
2022/06/24 00:12:16;;;;;;;4.07;3.67;;;22.70;71.20;;;;;;5050126;28;20064;-66
2022/06/24 00:14:45;;;;;;;4.53;3.22;;;22.60;73.60;;;;;;5072736;28;20045;-65
2022/06/24 00:17:13;;;;;;;4.30;3.17;;;22.50;75.10;;;;;;5067711;28;20040;-66
2022/06/24 00:20:00;;;;;;;5.13;3.47;;;22.30;76.30;;;;;;5066056;28;20053;-65
2022/06/24 00:22:28;;;;;;;5.32;3.20;;;22.20;77.40;;;;;;5054066;28;20127;-65
2022/06/24 00:25:26;;;;;;;4.82;3.60;;;22.00;76.90;;;;;;5065944;28;20041;-65
2022/06/24 00:28:03;;;;;;;4.80;3.30;;;21.80;79.80;;;;;;4986052;28;20086;-65
2022/06/24 00:30:35;;;;;;;6.50;3.53;;;21.60;79.90;;;;;;4994879;28;20119;-65
2022/06/24 00:33:19;;;;;;;6.38;3.97;;;21.50;82.10;;;;;;5005415;28;20089;-66
2022/06/24 00:35:47;;;;;;;4.72;3.90;;;21.40;81.40;;;;;;5005490;28;20054;-65
2022/06/24 00:38:34;;;;;;;3.95;3.55;;;21.10;84.60;;;;;;4986159;28;20058;-65
2022/06/24 00:40:59;;;;;;;4.72;4.20;;;21.00;88.70;;;;;;5008726;28;20077;-65
2022/06/24 00:43:35;;;;;;;5.65;4.40;;;20.60;90.80;;;;;;5005563;28;20054;-65
2022/06/24 00:46:12;;;;;;;5.03;4.10;;;20.30;93.00;;;;;;5005203;28;20074;-65
2022/06/24 00:48:43;;;;;;;4.10;3.75;;;20.20;94.00;;;;;;5020706;28;20052;-66
2022/06/24 00:51:09;;;;;;;5.45;4.15;;;20.00;94.90;;;;;;5010931;28;20088;-65
2022/06/24 00:53:43;;;;;;;4.32;3.88;;;20.10;94.80;;;;;;4997009;28;20054;-65
2022/06/24 00:56:13;;;;;;;4.65;4.20;;;20.00;95.40;;;;;;5004523;28;20051;-66
2022/06/24 00:58:39;;;;;;;4.43;3.90;;;20.00;95.50;;;;;;5018468;28;20077;-65
2022/06/24 01:01:05;;;;;;;4.85;4.38;;;19.90;96.80;;;;;;5009388;28;20053;-65
2022/06/24 01:03:42;;;;;;;4.78;4.28;;;19.80;98.10;;;;;;5020743;28;20053;-65
2022/06/24 01:06:08;;;;;;;4.25;3.85;;;19.80;99.90;;;;;;5052952;28;20069;-65
2022/06/24 01:08:34;;;;;;;4.75;4.05;;;19.80;99.90;;;;;;5049048;28;20099;-65
2022/06/24 01:11:00;;;;;;;6.40;4.78;;;19.70;99.90;;;;;;5060224;28;20484;-65
2022/06/24 01:13:28;;;;;;;5.50;4.28;;;19.60;99.70;;;;;;5059362;28;20054;-65
2022/06/24 01:15:54;;;;;;;6.15;4.50;;;19.70;99.80;;;;;;5048263;28;20080;-65
2022/06/24 01:18:21;;;;;;;5.28;4.03;;;19.80;99.90;;;;;;5049156;28;20113;-65
2022/06/24 01:20:47;;;;;;;4.47;4.07;;;19.70;99.90;;;;;;5043611;28;20044;-65
2022/06/24 01:23:13;;;;;;;4.65;4.20;;;19.60;99.90;;;;;;5062655;28;20052;-65
2022/06/24 01:25:38;;;;;;;5.15;3.97;;;19.60;99.90;;;;;;5044779;28;20078;-65
2022/06/24 01:28:04;;;;;;;6.32;4.50;;;19.60;99.90;;;;;;5057316;28;20076;-65
2022/06/24 01:30:30;;;;;;;4.68;3.45;;;19.50;99.90;;;;;;5054439;28;20044;-65
2022/06/24 01:32:56;;;;;;;5.28;4.28;;;19.60;99.90;;;;;;5050427;28;20056;-65
2022/06/24 01:35:21;;;;;;;6.80;3.97;;;19.70;99.90;;;;;;5069337;28;20040;-65
2022/06/24 01:37:47;;;;;;;6.43;4.13;;;19.80;99.90;;;;;;5058026;28;20041;-65
2022/06/24 01:40:13;;;;;;;4.72;4.32;;;19.70;99.90;;;;;;5070659;28;20047;-65
2022/06/24 01:42:39;;;;;;;4.30;3.85;;;19.80;99.90;;;;;;5045847;28;20511;-65
2022/06/24 01:45:05;;;;;;;4.97;4.07;;;19.70;99.90;;;;;;5050786;28;20052;-65
2022/06/24 01:47:31;;;;;;;4.60;3.95;;;19.70;99.90;;;;;;5048117;28;20052;-65
2022/06/24 01:49:56;;;;;;;6.88;3.90;;;19.50;99.90;;;;;;5059569;28;20041;-65
2022/06/24 01:52:22;;;;;;;4.85;4.13;;;19.30;99.90;;;;;;5050925;28;20061;-65
2022/06/24 01:54:48;;;;;;;4.15;3.75;;;19.10;99.90;;;;;;5064881;28;20045;-65
2022/06/24 01:57:14;;;;;;;5.32;4.30;;;18.90;99.90;;;;;;5045945;28;20056;-65
2022/06/24 01:59:39;;;;;;;6.40;4.47;;;18.80;99.90;;;;;;5055634;28;20044;-65
2022/06/24 02:02:05;;;;;;;5.50;4.20;;;18.80;99.90;;;;;;5036123;28;20041;-65
2022/06/24 02:04:31;;;;;;;5.85;4.18;;;18.70;99.90;;;;;;5057212;28;20044;-65
2022/06/24 02:06:56;;;;;;;5.43;4.60;;;18.70;99.90;;;;;;5056181;28;20068;-65
2022/06/24 02:09:22;;;;;;;4.88;4.30;;;18.70;99.90;;;;;;5056990;28;20057;-65
2022/06/24 02:14:32;;;;;;;5.10;4.60;;;18.60;99.90;;;;;;5050687;28;20079;-65
2022/06/24 02:16:59;;;;;;;5.25;4.47;;;18.50;99.90;;;;;;5053605;28;20132;-65
2022/06/24 02:19:25;;;;;;;5.15;4.65;;;18.40;99.90;;;;;;5047245;28;20064;-65
2022/06/24 02:21:50;;;;;;;4.90;4.35;;;18.20;99.90;;;;;;5071399;28;20053;-65
2022/06/24 02:24:16;;;;;;;5.43;4.35;;;18.00;99.90;;;;;;5046823;28;20040;-65
2022/06/24 02:26:45;;;;;;;5.85;4.47;;;18.10;99.90;;;;;;5053476;28;20087;-65
2022/06/24 02:29:12;;;;;;;4.95;4.15;;;17.90;99.90;;;;;;5047066;28;20128;-65
2022/06/24 02:31:39;;;;;;;5.88;5.05;;;17.90;99.90;;;;;;5064048;28;20056;-65
2022/06/24 02:34:04;;;;;;;6.65;4.43;;;17.80;99.90;;;;;;5055764;28;20033;-65
2022/06/24 02:36:30;;;;;;;5.65;4.85;;;17.60;99.90;;;;;;5052176;28;20048;-65
2022/06/24 02:38:56;;;;;;;4.40;4.00;;;17.50;99.90;;;;;;5051054;28;20044;-65
2022/06/24 02:41:21;;;;;;;4.72;4.32;;;17.40;99.90;;;;;;5045522;28;20133;-65
2022/06/24 02:43:47;;;;;;;5.72;4.18;;;17.20;99.90;;;;;;5065500;28;20053;-65
2022/06/24 02:46:16;;;;;;;5.80;4.60;;;17.20;99.90;;;;;;5032560;28;20045;-66
2022/06/24 02:48:43;;;;;;;4.63;4.10;;;17.10;99.90;;;;;;5055901;28;20096;-66
2022/06/24 02:51:11;;;;;;;5.32;4.65;;;17.30;99.90;;;;;;5044451;28;20075;-65
2022/06/24 02:53:37;;;;;;;6.05;4.68;;;17.40;99.90;;;;;;5047188;28;20056;-65
2022/06/24 02:56:08;;;;;;;5.30;4.80;;;17.60;99.90;;;;;;5063900;28;20053;-65
2022/06/24 02:58:35;;;;;;;5.20;4.57;;;17.80;99.90;;;;;;5063070;28;20049;-65
2022/06/24 03:01:01;;;;;;;5.43;4.90;;;17.90;99.90;;;;;;5056394;28;20099;-65
2022/06/24 03:03:28;;;;;;;8.23;5.28;;;18.00;99.90;;;;;;5053034;28;20087;-65
2022/06/24 03:05:54;;;;;;;6.88;4.95;;;18.10;99.90;;;;;;5053420;28;20056;-65
2022/06/24 03:08:21;;;;;;;5.72;4.47;;;18.10;99.90;;;;;;5045273;28;20056;-65
2022/06/24 03:10:48;;;;;;;5.50;5.00;;;18.30;99.90;;;;;;5046413;28;20122;-65
2022/06/24 03:13:14;;;;;;;5.50;4.80;;;18.30;99.90;;;;;;5058534;28;20049;-65
2022/06/24 03:15:40;;;;;;;6.05;5.25;;;18.20;99.90;;;;;;5044894;28;20040;-65
2022/06/24 03:18:06;;;;;;;5.00;4.50;;;18.20;99.90;;;;;;5044258;28;20045;-65
2022/06/24 03:20:32;;;;;;;9.00;6.40;;;18.30;99.90;;;;;;5061340;28;20046;-65
2022/06/24 03:22:58;;;;;;;7.53;5.13;;;18.40;99.90;;;;;;5046401;28;20083;-65
2022/06/24 03:25:24;;;;;;;5.72;4.40;;;18.50;99.90;;;;;;5067325;28;20122;-65
2022/06/24 03:27:49;;;;;;;9.48;5.07;;;18.50;99.90;;;;;;5046851;28;20105;-65
2022/06/24 03:30:15;;;;;;;6.13;5.30;;;18.60;99.90;;;;;;5055797;28;20071;-65
2022/06/24 03:32:41;;;;;;;8.25;4.55;;;18.60;99.90;;;;;;5051501;28;20116;-65
2022/06/24 03:35:08;;;;;;;5.82;5.20;;;18.50;99.90;;;;;;5046104;28;20045;-65
2022/06/24 03:37:34;;;;;;;6.00;4.97;;;18.50;99.90;;;;;;5066489;28;20124;-65
2022/06/24 03:40:01;;;;;;;5.38;4.90;;;18.50;99.90;;;;;;5061147;28;20128;-65
2022/06/24 03:42:27;;;;;;;6.18;5.57;;;18.50;99.90;;;;;;5046251;28;20052;-65
2022/06/24 03:44:53;;;;;;;6.38;5.07;;;18.50;99.90;;;;;;5046254;28;20144;-65
2022/06/24 03:47:19;;;;;;;6.20;5.10;;;18.40;99.90;;;;;;5056490;28;20082;-65
2022/06/24 03:49:45;;;;;;;5.95;5.15;;;18.40;99.90;;;;;;5052836;28;20041;-65
2022/06/24 03:52:11;;;;;;;5.90;5.30;;;18.30;99.90;;;;;;5056946;28;20043;-65
2022/06/24 03:54:37;;;;;;;6.18;4.90;;;18.30;99.90;;;;;;5050256;28;20200;-65
2022/06/24 03:57:05;;;;;;;5.60;5.00;;;18.30;99.90;;;;;;5050346;28;20041;-65
2022/06/24 03:59:31;;;;;;;9.40;5.40;;;18.30;99.90;;;;;;5056490;28;20041;-65
2022/06/24 04:01:57;;;;;;;6.15;5.13;;;18.40;99.90;;;;;;5049998;28;20055;-65
2022/06/24 04:04:23;;;;;;;5.78;5.25;;;18.40;99.90;;;;;;5072893;28;20049;-65
2022/06/24 04:06:49;;;;;;;5.60;5.10;;;18.30;99.90;;;;;;5074115;28;20052;-65
2022/06/24 04:09:15;;;;;;;7.90;5.43;;;18.30;99.90;;;;;;5046785;28;20041;-65
2022/06/24 04:11:41;;;;;;;7.18;5.82;;;18.40;99.90;;;;;;5065362;28;20060;-65
2022/06/24 04:14:07;;;;;;;7.97;6.07;;;18.50;99.90;;;;;;5053649;28;20089;-65
2022/06/24 04:16:32;;;;;;;6.78;6.05;;;18.70;99.90;;;;;;5049367;28;20052;-65
2022/06/24 04:18:58;;;;;;;6.78;5.50;;;18.70;99.90;;;;;;5049134;28;20080;-65
2022/06/24 04:21:24;;;;;;;5.93;5.32;;;18.90;99.90;;;;;;5074380;28;20053;-65
2022/06/24 04:23:50;;;;;;;7.80;5.43;;;19.00;99.90;;;;;;5074501;28;20106;-65
2022/06/24 04:26:17;;;;;;;7.45;4.97;;;19.20;99.90;;;;;;5074399;28;20056;-65
2022/06/24 04:28:43;;;;;;;7.15;4.80;;;19.30;99.90;;;;;;5072768;28;20053;-66
2022/06/24 04:31:09;;;;;;;7.03;4.93;;;19.40;99.90;;;;;;5072205;28;20044;-65
2022/06/24 04:33:34;;;;;;;6.32;4.88;;;19.60;99.90;;;;;;5062393;28;20056;-65
2022/06/24 04:36:00;;;;;;;7.55;4.82;;;19.60;99.90;;;;;;5049205;28;20378;-65
2022/06/24 04:38:26;;;;;;;8.15;4.75;;;19.80;99.90;;;;;;5065680;28;20056;-65
2022/06/24 04:40:52;;;;;;;4.82;4.28;;;19.90;99.90;;;;;;5045032;28;20041;-65
2022/06/24 04:43:17;;;;;;;6.13;4.63;;;20.10;99.90;;;;;;5057559;28;20052;-66
2022/06/24 04:45:44;;;;;;;5.50;4.72;;;20.10;99.90;;;;;;5036264;28;20044;-65
2022/06/24 04:48:10;;;;;;;5.97;4.80;;;20.10;99.90;;;;;;5053719;28;20379;-65
2022/06/24 04:50:36;;;;;;;8.68;4.75;;;20.30;99.90;;;;;;5065434;28;20106;-65
2022/06/24 04:53:02;;;;;;;5.50;4.53;;;20.40;99.90;;;;;;5031389;28;20065;-66
2022/06/24 04:55:28;;;;;;;6.45;4.00;;;20.40;99.90;;;;;;5066882;28;20049;-65
2022/06/24 04:57:53;;;;;;;4.95;4.38;;;20.50;99.90;;;;;;5050122;28;20508;-65
2022/06/24 05:00:19;;;;;;;6.00;4.70;;;20.50;99.90;;;;;;5071202;28;20107;-64
2022/06/24 05:02:45;;;;;;;6.40;4.95;;;20.60;99.90;;;;;;5047903;28;20112;-64
2022/06/24 05:05:11;;;;;;;6.63;4.57;;;20.50;99.90;;;;;;5046216;28;20090;-64
2022/06/24 05:07:38;;;;;;;6.25;5.07;;;20.50;99.90;;;;;;5045860;28;20049;-64
2022/06/24 05:10:05;;;;;;;8.90;5.22;;;20.60;99.90;;;;;;5057910;28;20045;-64
2022/06/24 05:12:31;;;;;;;5.47;4.97;;;20.60;99.90;;;;;;5040844;28;20052;-64
2022/06/24 05:14:57;;;;;;;7.20;6.05;;;20.70;99.90;;;;;;5046174;28;20128;-65
2022/06/24 05:17:24;;;;;;;9.98;8.10;;;20.70;99.90;;;;;;5045655;28;20045;-64
2022/06/24 05:19:50;;;;;;;10.63;7.18;;;20.60;99.90;;;;;;5031240;28;20084;-64
2022/06/24 05:22:16;;;;;;;8.05;6.90;;;20.60;99.90;;;;;;5021941;28;20083;-63
2022/06/24 05:24:42;;;;;;;9.73;7.40;;;20.70;99.90;;;;;;5048539;28;20041;-63
2022/06/24 05:27:08;;;;;;;9.18;8.27;;;20.80;99.90;;;;;;5065725;28;20052;-63
2022/06/24 05:29:34;;;;;;;8.70;7.57;;;20.80;99.90;;;;;;5063236;28;20033;-62
2022/06/24 05:31:59;;;;;;;9.98;8.95;;;21.00;99.90;;;;;;5058592;28;20052;-62
2022/06/24 05:34:25;;;;;;;10.23;7.78;;;20.90;99.90;;;;;;5039977;28;20088;-62
2022/06/24 05:36:51;;;;;;;12.85;9.35;;;21.00;99.90;;;;;;5036428;28;20405;-62
2022/06/24 05:39:17;;;;;;;12.98;9.73;;;20.90;99.90;;;;;;5060536;28;20063;-62
2022/06/24 05:41:43;;;;;;;12.07;9.90;;;20.90;99.90;;;;;;5032221;28;20390;-63
2022/06/24 05:44:10;;;;;;;12.40;9.95;;;20.80;99.90;;;;;;5052054;28;20048;-63
2022/06/24 05:46:35;;;;;;;12.48;9.95;;;20.80;99.90;;;;;;5047012;28;20044;-62
2022/06/24 05:49:01;;;;;;;22.92;11.85;;;20.90;99.90;;;;;;5030175;28;20152;-64
2022/06/24 05:51:28;;;;;;;14.88;12.30;;;20.80;99.90;;;;;;5049990;28;20110;-64
2022/06/24 05:56:38;;;;;;;20.15;11.55;;;20.50;99.90;;;;;;5063429;28;20142;-63
2022/06/24 05:59:04;;;;;;;15.38;12.13;;;20.40;99.90;;;;;;5069293;28;20501;-64
2022/06/24 06:01:30;;;;;;;15.85;11.45;;;20.30;99.90;;;;;;5044809;28;20105;-64
2022/06/24 06:03:56;;;;;;;14.13;12.65;;;20.10;99.90;;;;;;5058256;28;20468;-62
2022/06/24 06:06:23;;;;;;;14.80;11.32;;;20.30;99.90;;;;;;5045542;28;20052;-63
2022/06/24 06:08:49;;;;;;;16.52;13.77;;;20.20;99.90;;;;;;5064574;28;20477;-63
2022/06/24 06:11:23;;;;;;;15.50;13.90;;;20.20;99.90;;;;;;5062123;28;20047;-63
2022/06/24 06:13:50;;;;;;;19.67;14.57;;;20.20;99.90;;;;;;5064241;28;20131;-63
2022/06/24 06:16:17;;;;;;;15.45;13.38;;;20.10;99.90;;;;;;5070077;28;20043;-63
2022/06/24 06:18:43;;;;;;;15.65;11.93;;;20.10;99.90;;;;;;5063097;28;20477;-63
2022/06/24 06:21:10;;;;;;;16.33;11.93;;;20.20;99.90;;;;;;5052179;28;20342;-63
2022/06/24 06:23:37;;;;;;;14.63;12.63;;;20.20;99.90;;;;;;5048372;28;20047;-62
2022/06/24 06:26:04;;;;;;;14.40;12.25;;;20.30;99.90;;;;;;5055879;28;20060;-62
2022/06/24 06:28:30;;;;;;;16.90;11.18;;;20.40;99.90;;;;;;5060614;28;20045;-62
2022/06/24 06:30:56;;;;;;;17.65;14.50;;;20.40;99.90;;;;;;5052326;28;20045;-62
2022/06/24 06:33:22;;;;;;;19.25;15.68;;;20.50;99.90;;;;;;5065723;28;20224;-62
2022/06/24 06:35:48;;;;;;;16.70;12.70;;;20.60;99.90;;;;;;5054151;28;20070;-63
2022/06/24 06:38:15;;;;;;;15.73;12.60;;;20.60;99.90;;;;;;5045349;28;20047;-64
2022/06/24 06:40:41;;;;;;;13.30;11.80;;;20.60;99.90;;;;;;5032947;28;20045;-64
2022/06/24 06:43:07;;;;;;;13.40;11.75;;;20.70;99.90;;;;;;5057394;28;20046;-65
2022/06/24 06:45:33;;;;;;;15.82;11.43;;;20.60;99.90;;;;;;5042537;28;20110;-64
2022/06/24 06:47:59;;;;;;;19.65;13.18;;;20.60;99.90;;;;;;5043782;28;20045;-64
2022/06/24 06:50:26;;;;;;;16.63;12.10;;;20.60;99.90;;;;;;5058171;28;20070;-64
2022/06/24 06:52:52;;;;;;;16.45;11.50;;;20.50;99.90;;;;;;5063098;28;20083;-64
2022/06/24 06:55:17;;;;;;;13.07;11.05;;;20.30;99.90;;;;;;5042670;28;20056;-64
2022/06/24 06:57:43;;;;;;;15.30;10.38;;;20.30;99.90;;;;;;5037348;28;20045;-64
2022/06/24 07:00:09;;;;;;;13.93;10.68;;;20.30;99.90;;;;;;5062370;28;20128;-64
2022/06/24 07:02:36;;;;;;;11.20;10.07;;;20.20;99.90;;;;;;5059799;28;20631;-64
2022/06/24 07:05:03;;;;;;;16.13;9.38;;;20.10;99.90;;;;;;5063348;28;20136;-64
2022/06/24 07:07:29;;;;;;;14.18;9.57;;;20.10;99.90;;;;;;5043700;28;20058;-63
2022/06/24 07:09:54;;;;;;;11.43;9.38;;;20.10;99.90;;;;;;5066039;28;20123;-64
2022/06/24 07:12:21;;;;;;;14.02;10.45;;;20.00;99.90;;;;;;5063441;28;20075;-64
2022/06/24 07:14:46;;;;;;;14.93;10.50;;;19.90;99.90;;;;;;5042705;28;20047;-64
2022/06/24 07:17:12;;;;;;;13.30;10.23;;;19.90;99.90;;;;;;5046534;28;20077;-64
2022/06/24 07:19:38;;;;;;;14.18;10.65;;;19.90;99.90;;;;;;5050780;28;20504;-64
2022/06/24 07:22:04;;;;;;;14.77;11.27;;;19.90;99.90;;;;;;5032100;28;20038;-64
2022/06/24 07:24:30;;;;;;;14.20;11.07;;;19.90;99.90;;;;;;5046915;28;20091;-64
2022/06/24 07:26:56;;;;;;;11.80;10.60;;;19.80;99.90;;;;;;5050162;28;20045;-64
2022/06/24 07:29:21;;;;;;;14.93;12.02;;;20.00;99.90;;;;;;5045294;28;20053;-64
2022/06/24 07:31:47;;;;;;;13.32;12.02;;;19.90;99.90;;;;;;5042594;28;20057;-63
2022/06/24 07:34:14;;;;;;;14.73;11.93;;;20.00;99.90;;;;;;5052349;28;20053;-64
2022/06/24 07:36:41;;;;;;;15.25;10.43;;;20.00;99.90;;;;;;5048686;28;20124;-64
2022/06/24 07:39:07;;;;;;;17.45;11.50;;;20.00;99.90;;;;;;5058556;28;20120;-64
2022/06/24 07:41:33;;;;;;;11.57;10.25;;;20.00;99.90;;;;;;5068829;28;20063;-64
2022/06/24 07:43:58;;;;;;;13.25;11.73;;;19.90;99.90;;;;;;5045826;28;20427;-63
2022/06/24 07:46:24;;;;;;;14.25;11.10;;;20.00;99.90;;;;;;5039020;28;20080;-63
2022/06/24 07:48:50;;;;;;;13.18;11.77;;;19.80;99.90;;;;;;5065345;28;20056;-62
2022/06/24 07:51:16;;;;;;;12.45;11.15;;;19.80;99.90;;;;;;5062890;28;20045;-62
2022/06/24 07:53:44;;;;;;;10.82;9.70;;;19.90;99.90;;;;;;5064113;28;20049;-62
2022/06/24 07:58:54;;;;;;;12.02;10.82;;;19.90;99.90;;;;;;5044763;28;20044;-63
2022/06/24 08:01:19;;;;;;;11.10;9.38;;;20.10;99.90;;;;;;5045200;28;20404;-63
2022/06/24 08:03:45;;;;;;;13.23;9.82;;;20.00;99.90;;;;;;5048115;28;20044;-62
2022/06/24 08:06:11;;;;;;;11.07;9.88;;;20.00;99.90;;;;;;5063381;28;20470;-62
2022/06/24 08:08:37;;;;;;;10.77;9.40;;;20.00;99.90;;;;;;5040614;28;20060;-62
2022/06/24 08:11:04;;;;;;;11.25;10.05;;;20.00;99.90;;;;;;5036113;28;20041;-63
2022/06/24 08:13:30;;;;;;;10.43;9.23;;;20.20;99.90;;;;;;5059259;28;20136;-62
2022/06/24 08:15:56;;;;;;;11.18;8.68;;;20.20;99.90;;;;;;5036119;28;20072;-62
2022/06/24 08:18:22;;;;;;;9.18;8.18;;;20.20;99.90;;;;;;5039500;28;20103;-63
2022/06/24 08:20:48;;;;;;;9.13;8.23;;;20.20;99.90;;;;;;5070032;28;20082;-63
2022/06/24 08:23:14;;;;;;;8.50;7.63;;;20.10;99.90;;;;;;5047179;28;20534;-62
2022/06/24 08:25:40;;;;;;;10.45;8.18;;;20.30;99.90;;;;;;5048153;28;20041;-63
2022/06/24 08:28:06;;;;;;;8.85;7.40;;;20.20;99.90;;;;;;5033807;28;20072;-64
2022/06/24 08:30:31;;;;;;;11.18;8.80;;;20.20;99.90;;;;;;5061085;28;20061;-64
2022/06/24 08:32:57;;;;;;;10.10;8.35;;;20.20;99.90;;;;;;5042327;28;20083;-62
2022/06/24 08:35:23;;;;;;;9.65;7.97;;;20.30;99.90;;;;;;5055532;28;20051;-63
2022/06/24 08:37:48;;;;;;;8.73;7.68;;;20.30;99.90;;;;;;5038418;28;20045;-63
2022/06/24 08:40:15;;;;;;;14.25;10.13;;;20.40;99.90;;;;;;5056321;28;20449;-63
2022/06/24 08:42:43;;;;;;;8.27;7.32;;;20.40;99.90;;;;;;5053087;28;20049;-63
2022/06/24 08:45:12;;;;;;;8.77;7.82;;;20.40;99.90;;;;;;5033984;28;20097;-63
2022/06/24 08:47:39;;;;;;;7.72;6.93;;;20.50;99.90;;;;;;5059411;28;20057;-63
2022/06/24 08:50:08;;;;;;;9.27;7.30;;;20.50;99.90;;;;;;5066137;28;20097;-64
2022/06/24 08:52:35;;;;;;;11.23;7.70;;;20.50;99.90;;;;;;5047262;28;20045;-63
2022/06/24 08:55:05;;;;;;;8.93;6.90;;;20.40;99.90;;;;;;5064296;28;20048;-63
2022/06/24 08:57:31;;;;;;;8.73;7.30;;;20.50;99.90;;;;;;5051539;28;20057;-64
2022/06/24 08:59:57;;;;;;;8.27;7.47;;;20.40;99.90;;;;;;5062186;28;20065;-64
2022/06/24 09:02:23;;;;;;;10.30;7.88;;;20.30;99.90;;;;;;5049955;28;20584;-63
2022/06/24 09:04:49;;;;;;;8.93;7.57;;;20.40;99.90;;;;;;5062788;28;20057;-64
2022/06/24 09:07:25;;;;;;;9.15;8.25;;;20.60;99.90;;;;;;5063735;28;20095;-64
2022/06/24 09:10:06;;;;;;;11.35;9.70;;;20.60;99.90;;;;;;5061576;28;20054;-64
2022/06/24 09:12:41;;;;;;;11.23;8.77;;;20.60;99.90;;;;;;5045697;28;20057;-66
2022/06/24 09:15:09;;;;;;;9.82;8.68;;;20.70;99.90;;;;;;5066559;28;20052;-66
2022/06/24 09:17:36;;;;;;;10.00;8.98;;;20.70;99.90;;;;;;5058675;28;20076;-66
2022/06/24 09:20:09;;;;;;;8.60;7.80;;;20.80;99.90;;;;;;5063551;28;20119;-64
2022/06/24 09:22:35;;;;;;;10.93;9.82;;;20.90;99.90;;;;;;5057585;28;20047;-64
2022/06/24 09:25:03;;;;;;;10.73;9.43;;;20.80;99.90;;;;;;5063906;28;20049;-64
2022/06/24 09:27:28;;;;;;;11.80;9.23;;;20.80;99.90;;;;;;5060606;28;20045;-64
2022/06/24 09:29:54;;;;;;;11.48;10.38;;;20.90;99.90;;;;;;5062319;28;20060;-64
2022/06/24 09:32:20;;;;;;;11.07;9.38;;;20.90;99.90;;;;;;5058974;28;20065;-64
2022/06/24 09:35:06;;;;;;;9.85;8.85;;;20.80;99.90;;;;;;5068038;28;20056;-64
2022/06/24 09:37:40;;;;;;;9.80;8.90;;;20.90;99.90;;;;;;5066703;28;20044;-64
2022/06/24 09:40:30;;;;;;;10.15;9.15;;;20.90;99.90;;;;;;5048477;28;20501;-64
2022/06/24 09:43:04;;;;;;;10.13;9.13;;;20.90;99.90;;;;;;5059683;28;20084;-64
2022/06/24 09:45:50;;;;;;;11.63;8.93;;;20.90;99.90;;;;;;5066401;28;20051;-64
2022/06/24 09:48:37;;;;;;;10.82;9.70;;;20.70;99.90;;;;;;5060979;28;20071;-64
2022/06/24 09:51:03;;;;;;;10.13;9.13;;;20.80;99.90;;;;;;5046218;28;20199;-64
2022/06/24 09:53:33;;;;;;;10.23;9.23;;;20.80;99.90;;;;;;5069809;28;20133;-64
2022/06/24 09:55:59;;;;;;;9.55;8.57;;;20.80;99.90;;;;;;5066366;28;20428;-63
2022/06/24 09:58:26;;;;;;;10.43;9.43;;;20.80;99.90;;;;;;5068486;28;20045;-63
2022/06/24 10:00:52;;;;;;;10.40;9.40;;;20.80;99.90;;;;;;5065162;28;20079;-64
2022/06/24 10:03:18;;;;;;;9.90;9.00;;;20.70;99.90;;;;;;5058603;28;20082;-64
2022/06/24 10:05:46;;;;;;;12.60;10.23;;;20.80;99.90;;;;;;5069419;28;20183;-65
2022/06/24 10:08:18;;;;;;;14.15;11.70;;;20.60;99.90;;;;;;5047648;28;20048;-64
2022/06/24 10:10:48;;;;;;;92.10;12.85;;;20.40;99.90;;;;;;5046447;28;20037;-64
2022/06/24 10:13:38;;;;;;;23.20;3.70;;;20.40;99.90;;;;;;5044468;28;20083;-64
2022/06/24 10:16:06;;;;;;;7.55;1.20;;;19.20;99.90;;;;;;5043202;28;20049;-64
2022/06/24 10:18:43;;;;;;;9.85;2.38;;;18.60;99.90;;;;;;5046772;28;20100;-64
2022/06/24 10:21:11;;;;;;;7.57;4.82;;;18.20;99.90;;;;;;5050984;28;20041;-64
2022/06/24 10:23:37;;;;;;;5.85;4.07;;;18.10;99.90;;;;;;5035706;28;20041;-64
2022/06/24 10:26:34;;;;;;;5.55;4.22;;;18.40;99.90;;;;;;5038524;28;20045;-64
2022/06/24 10:29:00;;;;;;;9.40;5.13;;;18.20;99.90;;;;;;5048668;28;20041;-65
2022/06/24 10:31:44;;;;;;;8.75;5.72;;;18.30;99.90;;;;;;5049321;28;20048;-65
2022/06/24 10:34:30;;;;;;;8.75;6.20;;;18.10;99.90;;;;;;5057473;28;20103;-65
2022/06/24 10:37:22;;;;;;;9.13;6.38;;;18.00;99.90;;;;;;5043660;28;20037;-65
2022/06/24 10:39:56;;;;;;;10.48;6.40;;;18.20;99.90;;;;;;5038446;28;20063;-65
2022/06/24 10:42:24;;;;;;;8.23;5.63;;;18.30;99.90;;;;;;5063239;28;20060;-64
2022/06/24 10:45:04;;;;;;;9.82;6.53;;;18.50;99.90;;;;;;5062241;28;20049;-64
2022/06/24 10:47:43;;;;;;;8.77;6.13;;;18.30;99.90;;;;;;5043008;28;20052;-65
2022/06/24 10:50:14;;;;;;;9.80;5.53;;;18.20;99.90;;;;;;5042868;28;20493;-64
2022/06/24 10:52:45;;;;;;;9.98;6.15;;;18.20;99.90;;;;;;5074312;28;20044;-65
2022/06/24 10:57:47;;;;;;;8.07;6.30;;;18.50;99.90;;;;;;5047310;28;20061;-65
2022/06/24 11:00:13;;;;;;;;;;;18.60;99.90;;;;;;5047309;28;20106;-65
2022/06/24 11:02:39;;;;;;;5.20;3.83;;;18.40;99.90;;;;;;5047344;28;19920;-65
2022/06/24 11:05:19;;;;;;;7.72;4.88;;;18.00;99.90;;;;;;5046803;28;20120;-65
2022/06/24 11:07:46;;;;;;;4.90;4.10;;;18.20;99.90;;;;;;5047112;28;20048;-65
2022/06/24 11:10:24;;;;;;;4.82;3.75;;;17.90;99.90;;;;;;5030629;28;20057;-64
2022/06/24 11:12:54;;;;;;;4.47;3.72;;;17.70;99.90;;;;;;5022314;28;20050;-65
2022/06/24 11:15:33;;;;;;;4.78;3.35;;;17.90;99.90;;;;;;5019341;28;20060;-64
2022/06/24 11:18:06;;;;;;;4.67;3.50;;;17.50;99.90;;;;;;5039560;28;20114;-65
2022/06/24 11:20:34;;;;;;;5.13;4.03;;;17.60;99.90;;;;;;5046563;28;20291;-64
2022/06/24 11:23:00;;;;;;;5.40;4.00;;;17.50;99.90;;;;;;5060963;28;20041;-65
2022/06/24 11:25:26;;;;;;;5.47;4.47;;;17.50;99.90;;;;;;5035821;28;20214;-65
2022/06/24 11:27:51;;;;;;;5.57;4.00;;;17.30;99.90;;;;;;5044543;28;20056;-65
2022/06/24 11:30:17;;;;;;;6.75;4.55;;;17.30;99.90;;;;;;5027173;28;20389;-64
2022/06/24 11:32:57;;;;;;;4.80;4.28;;;17.20;99.90;;;;;;5043813;28;20120;-64
2022/06/24 11:35:24;;;;;;;5.22;4.15;;;17.30;99.90;;;;;;5031523;28;20087;-65
2022/06/24 11:37:50;;;;;;;6.03;4.40;;;17.30;99.90;;;;;;5022488;28;20038;-65
2022/06/24 11:40:28;;;;;;;4.70;4.20;;;17.50;99.90;;;;;;5041050;28;20049;-64
2022/06/24 11:42:55;;;;;;;4.80;4.35;;;17.70;99.90;;;;;;5040375;28;20524;-65
2022/06/24 11:45:35;;;;;;;6.95;5.22;;;17.80;99.90;;;;;;5042278;28;20049;-64
2022/06/24 11:48:01;;;;;;;7.00;5.05;;;17.90;99.90;;;;;;5035170;28;20076;-64
2022/06/24 11:50:27;;;;;;;6.22;5.63;;;18.00;99.90;;;;;;5032470;28;20220;-65
2022/06/24 11:52:55;;;;;;;6.90;5.05;;;18.10;99.90;;;;;;5022757;28;20050;-64
2022/06/24 11:55:30;;;;;;;4.63;4.20;;;18.40;99.90;;;;;;5054327;28;20071;-65
2022/06/24 11:58:01;;;;;;;6.03;4.38;;;18.40;99.90;;;;;;5040291;28;20042;-64
2022/06/24 12:00:30;;;;;;;6.22;4.47;;;18.40;99.90;;;;;;5042000;28;20129;-65
2022/06/24 12:02:57;;;;;;;5.40;4.55;;;18.60;99.90;;;;;;5020633;28;20041;-65
2022/06/24 12:05:26;;;;;;;5.28;4.50;;;18.50;99.90;;;;;;5028335;28;20136;-65
2022/06/24 12:07:53;;;;;;;8.33;4.67;;;18.70;99.90;;;;;;5030203;28;20041;-65
2022/06/24 12:10:19;;;;;;;6.40;4.47;;;18.50;99.90;;;;;;5053242;28;20068;-64
2022/06/24 12:13:05;;;;;;;6.30;5.70;;;18.50;99.90;;;;;;5038472;28;20045;-65
2022/06/24 12:15:31;;;;;;;6.95;5.40;;;18.60;99.90;;;;;;5044650;28;20064;-64
2022/06/24 12:17:57;;;;;;;7.72;5.53;;;18.70;99.90;;;;;;5046573;28;20033;-65
2022/06/24 12:20:28;;;;;;;7.30;5.22;;;18.80;99.90;;;;;;5031945;28;20125;-64
2022/06/24 12:23:14;;;;;;;7.35;5.72;;;19.00;99.90;;;;;;5030281;28;20065;-65
2022/06/24 12:25:45;;;;;;;6.75;5.43;;;19.30;99.90;;;;;;5044177;28;20049;-65
2022/06/24 12:28:24;;;;;;;10.45;5.45;;;19.30;99.90;;;;;;5043711;28;20041;-64
2022/06/24 12:30:58;;;;;;;7.05;5.25;;;19.40;99.90;;;;;;5048292;28;20045;-65
2022/06/24 12:33:25;;;;;;;6.63;5.90;;;19.30;99.90;;;;;;5029424;28;20037;-64
2022/06/24 12:36:09;;;;;;;7.90;6.97;;;19.60;99.90;;;;;;5054884;28;20472;-65
2022/06/24 12:38:36;;;;;;;8.35;7.05;;;19.80;99.90;;;;;;5032712;28;20053;-65
2022/06/24 12:41:07;;;;;;;8.82;7.45;;;19.80;99.90;;;;;;5028455;28;20428;-65
2022/06/24 12:43:32;;;;;;;9.43;8.15;;;19.90;99.90;;;;;;5025758;28;20053;-64
2022/06/24 12:45:58;;;;;;;12.98;10.85;;;19.80;99.90;;;;;;5029027;28;20105;-63
2022/06/24 12:51:12;;;;;;;11.27;10.15;;;20.20;99.90;;;;;;5030659;28;20608;-63
2022/06/24 12:53:37;;;;;;;13.48;11.70;;;20.20;99.90;;;;;;5014887;28;20056;-63
2022/06/24 12:56:03;;;;;;;12.27;11.02;;;20.30;99.90;;;;;;5027950;28;20072;-63
2022/06/24 12:58:29;;;;;;;14.32;12.05;;;20.40;99.90;;;;;;5037494;28;20054;-63
2022/06/24 13:00:55;;;;;;;12.52;11.30;;;20.40;99.90;;;;;;5045605;28;20114;-63